createdAt,value
2022-08-03T00:01:35.736Z,18.04
2022-08-03T00:04:03.632Z,18.20
2022-08-03T00:06:36.963Z,18.17
2022-08-03T00:09:06.134Z,18.10
2022-08-03T00:11:34.142Z,18.02
2022-08-03T00:14:02.255Z,18.25
2022-08-03T00:16:30.307Z,18.25
2022-08-03T00:18:58.196Z,18.17
2022-08-03T00:21:29.851Z,18.07
2022-08-03T00:23:59.101Z,18.14
2022-08-03T00:26:26.927Z,18.22
2022-08-03T00:28:54.804Z,18.25
2022-08-03T00:31:40.051Z,18.19
2022-08-03T00:34:10.531Z,18.20
2022-08-03T00:36:40.415Z,18.19
2022-08-03T00:39:10.167Z,18.23
2022-08-03T00:41:37.997Z,18.23
2022-08-03T00:44:06.079Z,18.10
2022-08-03T00:46:33.901Z,18.19
2022-08-03T00:49:02.125Z,18.15
2022-08-03T00:51:30.024Z,18.12
2022-08-03T00:53:57.815Z,18.27
2022-08-03T00:56:27.791Z,18.15
2022-08-03T00:58:58.802Z,18.32
2022-08-03T01:01:26.686Z,18.20
2022-08-03T01:04:00.580Z,18.27
2022-08-03T01:06:35.281Z,18.09
2022-08-03T01:09:10.781Z,18.13
2022-08-03T01:12:00.126Z,18.28
2022-08-03T01:14:35.126Z,18.18
2022-08-03T01:17:11.266Z,18.04
2022-08-03T01:19:50.712Z,18.07
2022-08-03T01:22:46.143Z,18.00
2022-08-03T01:25:25.893Z,17.88
2022-08-03T01:28:10.901Z,17.88
2022-08-03T01:30:44.860Z,17.98
2022-08-03T01:33:16.827Z,17.95
2022-08-03T01:35:48.592Z,17.81
2022-08-03T01:38:21.490Z,17.80
2022-08-03T01:40:52.452Z,17.77
2022-08-03T01:44:27.759Z,17.67
2022-08-03T01:46:15.475Z,17.49
2022-08-03T01:48:45.892Z,17.55
2022-08-03T01:51:16.750Z,17.76
2022-08-03T01:53:45.687Z,17.64
2022-08-03T01:56:15.128Z,17.70
2022-08-03T01:58:44.920Z,17.56
2022-08-03T02:01:17.030Z,17.48
2022-08-03T02:03:58.058Z,17.53
2022-08-03T02:07:00.488Z,17.23
2022-08-03T02:09:19.067Z,17.44
2022-08-03T02:11:48.540Z,17.50
2022-08-03T02:14:18.560Z,17.47
2022-08-03T02:16:50.262Z,17.42
2022-08-03T02:19:20.549Z,17.41
2022-08-03T02:21:57.271Z,17.35
2022-08-03T02:24:29.695Z,17.36
2022-08-03T02:26:59.320Z,17.33
2022-08-03T02:29:39.417Z,17.27
2022-08-03T02:32:11.682Z,17.31
2022-08-03T02:34:41.116Z,17.40
2022-08-03T02:37:11.698Z,17.26
2022-08-03T02:39:42.151Z,17.15
2022-08-03T02:42:12.206Z,17.17
2022-08-03T02:44:43.792Z,17.10
2022-08-03T02:47:15.560Z,16.76
2022-08-03T02:49:51.504Z,16.92
2022-08-03T02:52:23.374Z,16.76
2022-08-03T02:54:54.637Z,16.87
2022-08-03T02:57:23.925Z,16.81
2022-08-03T02:59:53.049Z,16.76
2022-08-03T03:02:22.543Z,16.69
2022-08-03T03:05:50.533Z,16.67
2022-08-03T03:07:51.463Z,16.55
2022-08-03T03:10:20.835Z,16.52
2022-08-03T03:12:51.429Z,16.58
2022-08-03T03:15:19.367Z,16.60
2022-08-03T03:17:49.705Z,16.48
2022-08-03T03:20:29.544Z,16.48
2022-08-03T03:22:59.847Z,16.43
2022-08-03T03:25:29.267Z,16.40
2022-08-03T03:27:57.827Z,16.39
2022-08-03T03:30:26.166Z,16.38
2022-08-03T03:32:55.688Z,16.38
2022-08-03T03:35:23.656Z,16.33
2022-08-03T03:37:51.497Z,16.31
2022-08-03T03:40:19.520Z,16.25
2022-08-03T03:42:47.609Z,16.23
2022-08-03T03:45:16.928Z,16.23
2022-08-03T03:47:44.766Z,16.06
2022-08-03T03:50:14.564Z,16.16
2022-08-03T03:52:42.463Z,16.13
2022-08-03T03:55:10.680Z,16.04
2022-08-03T03:57:38.472Z,16.19
2022-08-03T04:00:07.749Z,16.01
2022-08-03T04:02:35.771Z,16.15
2022-08-03T04:05:20.824Z,15.92
2022-08-03T04:08:16.875Z,16.13
2022-08-03T04:11:01.818Z,16.20
2022-08-03T04:13:33.575Z,16.31
2022-08-03T04:16:03.044Z,16.35
2022-08-03T04:18:33.775Z,16.35
2022-08-03T04:21:05.296Z,16.32
2022-08-03T04:23:36.751Z,16.29
2022-08-03T04:26:09.656Z,16.30
2022-08-03T04:28:39.822Z,16.33
2022-08-03T04:31:08.281Z,16.28
2022-08-03T04:33:39.597Z,16.27
2022-08-03T04:36:09.883Z,16.26
2022-08-03T04:38:45.223Z,16.26
2022-08-03T04:41:14.046Z,16.26
2022-08-03T04:43:42.188Z,16.27
2022-08-03T04:46:11.351Z,16.28
2022-08-03T04:48:44.364Z,16.31
2022-08-03T04:51:12.983Z,16.36
2022-08-03T04:53:42.120Z,16.38
2022-08-03T04:56:10.098Z,16.38
2022-08-03T04:58:37.882Z,16.41
2022-08-03T05:01:05.948Z,16.48
2022-08-03T05:03:33.751Z,16.56
2022-08-03T05:06:11.008Z,16.62
2022-08-03T05:08:46.104Z,16.76
2022-08-03T05:11:16.391Z,16.83
2022-08-03T05:13:44.162Z,16.95
2022-08-03T05:16:12.098Z,17.07
2022-08-03T05:18:39.835Z,17.13
2022-08-03T05:21:07.839Z,17.26
2022-08-03T05:23:35.716Z,17.45
2022-08-03T05:26:03.470Z,17.52
2022-08-03T05:28:32.976Z,17.52
2022-08-03T05:31:00.773Z,17.71
2022-08-03T05:33:28.735Z,17.78
2022-08-03T05:36:03.309Z,18.04
2022-08-03T05:38:33.908Z,18.16
2022-08-03T05:41:21.324Z,18.31
2022-08-03T05:43:52.824Z,18.58
2022-08-03T05:46:21.152Z,18.85
2022-08-03T05:48:49.261Z,18.94
2022-08-03T05:51:17.119Z,19.17
2022-08-03T05:53:45.821Z,19.50
2022-08-03T05:56:16.234Z,19.54
2022-08-03T05:58:45.559Z,19.87
2022-08-03T06:01:15.264Z,20.10
2022-08-03T06:03:43.228Z,20.27
2022-08-03T06:06:11.754Z,20.53
2022-08-03T06:08:39.947Z,20.88
2022-08-03T06:11:07.838Z,21.08
2022-08-03T06:13:36.267Z,21.17
2022-08-03T06:16:04.439Z,21.46
2022-08-03T06:18:33.683Z,21.59
2022-08-03T06:21:14.724Z,21.63
2022-08-03T06:23:52.632Z,21.91
2022-08-03T06:26:21.867Z,22.14
2022-08-03T06:28:53.368Z,22.25
2022-08-03T06:31:22.871Z,22.44
2022-08-03T06:34:31.186Z,22.52
2022-08-03T06:36:40.078Z,22.85
2022-08-03T06:39:08.294Z,22.82
2022-08-03T06:41:37.530Z,23.15
2022-08-03T06:44:06.249Z,23.29
2022-08-03T06:46:34.120Z,23.27
2022-08-03T06:49:03.486Z,23.48
2022-08-03T06:52:03.823Z,23.65
2022-08-03T06:54:19.452Z,23.72
2022-08-03T06:56:47.233Z,23.86
2022-08-03T07:00:06.346Z,23.87
2022-08-03T07:02:02.899Z,24.12
2022-08-03T07:04:32.088Z,24.34
2022-08-03T07:06:59.945Z,24.51
2022-08-03T07:09:28.126Z,24.24
2022-08-03T07:11:57.092Z,24.35
2022-08-03T07:14:24.916Z,24.61
2022-08-03T07:16:52.805Z,24.83
2022-08-03T07:19:20.616Z,25.01
2022-08-03T07:21:49.826Z,25.14
2022-08-03T07:24:21.859Z,25.21
2022-08-03T07:26:49.707Z,24.94
2022-08-03T07:29:17.636Z,24.94
2022-08-03T07:31:45.871Z,24.97
2022-08-03T07:34:13.723Z,25.41
2022-08-03T07:36:41.569Z,25.49
2022-08-03T07:39:15.764Z,25.55
2022-08-03T07:41:46.117Z,25.78
2022-08-03T07:44:13.991Z,25.76
2022-08-03T07:46:41.836Z,25.58
2022-08-03T07:49:09.898Z,26.26
2022-08-03T07:51:37.932Z,26.06
2022-08-03T07:54:05.941Z,26.27
2022-08-03T07:56:35.211Z,26.47
2022-08-03T07:59:03.282Z,26.70
2022-08-03T08:01:33.031Z,26.77
2022-08-03T08:04:00.824Z,27.22
2022-08-03T08:06:28.629Z,27.13
2022-08-03T08:08:59.645Z,27.35
2022-08-03T08:11:27.452Z,27.59
2022-08-03T08:13:56.665Z,27.62
2022-08-03T08:16:24.537Z,28.09
2022-08-03T08:18:52.338Z,27.94
2022-08-03T08:21:20.530Z,27.93
2022-08-03T08:23:55.641Z,28.42
2022-08-03T08:26:25.717Z,27.76
2022-08-03T08:28:53.637Z,27.36
2022-08-03T08:31:22.861Z,27.57
2022-08-03T08:34:06.175Z,27.90
2022-08-03T08:36:34.593Z,28.41
2022-08-03T08:39:03.125Z,28.41
2022-08-03T08:41:33.767Z,28.23
2022-08-03T08:44:01.923Z,28.02
2022-08-03T08:46:33.925Z,28.25
2022-08-03T08:49:04.544Z,28.11
2022-08-03T08:51:59.296Z,28.41
2022-08-03T08:54:27.016Z,28.85
2022-08-03T08:56:59.275Z,28.98
2022-08-03T08:59:48.454Z,28.33
2022-08-03T09:02:19.109Z,28.34
2022-08-03T09:04:48.866Z,28.20
2022-08-03T09:07:20.442Z,28.26
2022-08-03T09:10:11.727Z,28.25
2022-08-03T09:12:42.473Z,28.48
2022-08-03T09:15:22.454Z,28.40
2022-08-03T09:17:53.543Z,28.64
2022-08-03T09:20:23.442Z,29.11
2022-08-03T09:22:59.268Z,29.58
2022-08-03T09:25:31.873Z,29.67
2022-08-03T09:28:08.613Z,29.89
2022-08-03T09:30:36.952Z,29.43
2022-08-03T09:33:09.148Z,29.22
2022-08-03T09:35:58.502Z,29.60
2022-08-03T09:38:27.544Z,29.90
2022-08-03T09:41:00.034Z,30.37
2022-08-03T09:43:28.912Z,30.22
2022-08-03T09:46:04.637Z,29.33
2022-08-03T09:48:35.094Z,29.87
2022-08-03T09:51:13.100Z,29.88
2022-08-03T09:53:59.255Z,29.80
2022-08-03T09:56:42.751Z,29.69
2022-08-03T09:59:11.593Z,30.37
2022-08-03T10:01:41.848Z,30.41
2022-08-03T10:04:17.007Z,30.19
2022-08-03T10:06:45.826Z,30.20
2022-08-03T10:09:17.215Z,30.70
2022-08-03T10:11:46.896Z,31.13
2022-08-03T10:14:19.355Z,31.36
2022-08-03T10:16:48.882Z,31.50
2022-08-03T10:19:18.459Z,31.46
2022-08-03T10:21:51.086Z,30.56
2022-08-03T10:24:25.827Z,30.64
2022-08-03T10:26:58.142Z,30.10
2022-08-03T10:29:29.308Z,31.04
2022-08-03T10:32:00.063Z,31.14
2022-08-03T10:34:36.134Z,31.81
2022-08-03T10:37:09.171Z,31.92
2022-08-03T10:39:37.376Z,31.39
2022-08-03T10:42:14.724Z,32.05
2022-08-03T10:44:43.473Z,31.71
2022-08-03T10:47:12.376Z,31.86
2022-08-03T10:49:42.580Z,31.45
2022-08-03T10:52:13.393Z,31.69
2022-08-03T10:55:16.321Z,31.49
2022-08-03T10:57:49.775Z,31.50
2022-08-03T11:00:19.639Z,31.59
2022-08-03T11:03:10.937Z,31.43
2022-08-03T11:05:42.447Z,31.64
2022-08-03T11:08:31.065Z,31.28
2022-08-03T11:11:01.813Z,32.16
2022-08-03T11:13:33.910Z,30.64
2022-08-03T11:16:07.176Z,31.06
2022-08-03T11:18:37.572Z,31.25
2022-08-03T11:21:06.777Z,31.74
2022-08-03T11:24:04.362Z,32.21
2022-08-03T11:26:34.382Z,32.09
2022-08-03T11:29:29.741Z,31.96
2022-08-03T11:31:58.031Z,31.62
2022-08-03T11:34:26.096Z,30.62
2022-08-03T11:37:28.786Z,31.62
2022-08-03T11:39:57.889Z,32.44
2022-08-03T11:42:47.943Z,32.47
2022-08-03T11:45:15.871Z,33.36
2022-08-03T11:47:50.639Z,34.02
2022-08-03T11:50:21.532Z,33.60
2022-08-03T11:52:51.039Z,33.83
2022-08-03T11:55:22.426Z,32.53
2022-08-03T11:59:17.557Z,32.44
2022-08-03T12:00:38.849Z,33.17
2022-08-03T12:03:09.263Z,32.63
2022-08-03T12:05:50.998Z,32.03
2022-08-03T12:08:32.444Z,32.14
2022-08-03T12:11:02.346Z,32.75
2022-08-03T12:13:56.618Z,32.82
2022-08-03T12:16:29.674Z,32.55
2022-08-03T12:18:58.779Z,33.24
2022-08-03T12:21:26.735Z,33.50
2022-08-03T12:24:00.559Z,33.43
2022-08-03T12:26:29.548Z,34.22
2022-08-03T12:28:57.789Z,33.81
2022-08-03T12:31:25.999Z,34.55
2022-08-03T12:33:59.350Z,33.70
2022-08-03T12:36:27.919Z,32.82
2022-08-03T12:38:59.176Z,33.31
2022-08-03T12:41:34.088Z,34.01
2022-08-03T12:44:03.692Z,33.36
2022-08-03T12:46:33.385Z,33.88
2022-08-03T12:49:03.594Z,34.44
2022-08-03T12:51:33.101Z,33.57
2022-08-03T12:54:02.638Z,33.40
2022-08-03T12:56:30.557Z,33.88
2022-08-03T12:58:58.380Z,34.73
2022-08-03T13:01:27.930Z,33.94
2022-08-03T13:03:55.798Z,33.97
2022-08-03T13:06:26.471Z,33.11
2022-08-03T13:09:06.781Z,34.39
2022-08-03T13:11:53.456Z,34.96
2022-08-03T13:14:23.824Z,34.76
2022-08-03T13:16:52.082Z,34.06
2022-08-03T13:19:19.944Z,33.97
2022-08-03T13:22:01.866Z,34.80
2022-08-03T13:24:34.277Z,35.11
2022-08-03T13:27:22.440Z,35.15
2022-08-03T13:29:50.245Z,34.64
2022-08-03T13:32:18.158Z,34.06
2022-08-03T13:34:46.075Z,34.78
2022-08-03T13:37:14.147Z,35.24
2022-08-03T13:39:58.471Z,35.39
2022-08-03T13:42:28.918Z,34.10
2022-08-03T13:44:56.817Z,35.07
2022-08-03T13:47:24.677Z,33.61
2022-08-03T13:50:00.174Z,32.33
2022-08-03T13:52:31.588Z,33.06
2022-08-03T13:55:01.037Z,33.90
2022-08-03T13:58:04.029Z,33.24
2022-08-03T14:00:26.353Z,33.18
2022-08-03T14:03:02.801Z,34.25
2022-08-03T14:05:33.519Z,34.40
2022-08-03T14:08:04.286Z,34.48
2022-08-03T14:10:35.081Z,34.13
2022-08-03T14:13:02.926Z,34.56
2022-08-03T14:15:30.800Z,34.85
2022-08-03T14:17:59.108Z,35.36
2022-08-03T14:20:38.496Z,34.12
2022-08-03T14:23:07.833Z,34.75
2022-08-03T14:25:43.535Z,34.61
2022-08-03T14:28:19.640Z,34.13
2022-08-03T14:30:48.601Z,34.05
2022-08-03T14:33:16.807Z,34.31
2022-08-03T14:35:44.732Z,34.79
2022-08-03T14:38:12.544Z,34.74
2022-08-03T14:40:41.810Z,35.22
2022-08-03T14:43:09.640Z,34.72
2022-08-03T14:45:37.902Z,34.69
2022-08-03T14:50:33.249Z,35.20
2022-08-03T14:50:55.246Z,34.41
2022-08-03T14:53:23.727Z,33.94
2022-08-03T14:55:53.574Z,34.05
2022-08-03T14:58:22.399Z,32.54
2022-08-03T15:00:52.121Z,32.12
2022-08-03T15:03:23.595Z,32.85
2022-08-03T15:05:52.916Z,33.22
2022-08-03T15:08:21.221Z,33.53
2022-08-03T15:10:49.577Z,33.47
2022-08-03T15:13:19.571Z,33.46
2022-08-03T15:15:48.143Z,33.63
2022-08-03T15:18:16.008Z,33.59
2022-08-03T15:20:46.006Z,33.62
2022-08-03T15:23:15.632Z,33.79
2022-08-03T15:26:30.330Z,34.02
2022-08-03T15:28:34.195Z,33.93
2022-08-03T15:31:05.342Z,33.58
2022-08-03T15:33:33.328Z,33.43
2022-08-03T15:36:03.334Z,33.65
2022-08-03T15:38:31.290Z,33.32
2022-08-03T15:40:59.244Z,32.98
2022-08-03T15:43:27.077Z,33.19
2022-08-03T15:46:27.799Z,32.96
2022-08-03T15:48:44.112Z,32.41
2022-08-03T15:51:12.260Z,32.07
2022-08-03T15:53:40.407Z,32.63
2022-08-03T15:56:13.249Z,32.62
2022-08-03T15:59:03.318Z,32.88
2022-08-03T16:01:32.877Z,33.18
2022-08-03T16:04:00.799Z,33.02
2022-08-03T16:06:29.814Z,32.61
2022-08-03T16:09:05.331Z,32.80
2022-08-03T16:11:33.407Z,32.97
2022-08-03T16:14:13.375Z,32.90
2022-08-03T16:16:50.504Z,32.58
2022-08-03T16:19:18.335Z,32.86
2022-08-03T16:21:48.358Z,32.64
2022-08-03T16:24:27.556Z,32.61
2022-08-03T16:26:55.605Z,32.56
2022-08-03T16:29:24.020Z,32.63
2022-08-03T16:31:53.790Z,32.01
2022-08-03T16:34:22.088Z,32.26
2022-08-03T16:36:50.005Z,31.43
2022-08-03T16:39:17.926Z,32.05
2022-08-03T16:41:54.525Z,31.90
2022-08-03T16:44:30.931Z,32.04
2022-08-03T16:47:00.566Z,32.03
2022-08-03T16:49:54.781Z,31.76
2022-08-03T16:52:16.477Z,31.90
2022-08-03T16:54:50.743Z,31.68
2022-08-03T16:57:29.907Z,31.91
2022-08-03T17:00:12.015Z,31.90
2022-08-03T17:02:48.417Z,31.77
2022-08-03T17:05:16.430Z,31.79
2022-08-03T17:07:50.573Z,31.50
2022-08-03T17:10:27.054Z,31.52
2022-08-03T17:12:55.824Z,31.42
2022-08-03T17:15:38.150Z,31.44
2022-08-03T17:18:18.201Z,31.31
2022-08-03T17:20:50.951Z,31.23
2022-08-03T17:23:36.049Z,31.23
2022-08-03T17:26:11.593Z,31.23
2022-08-03T17:28:50.177Z,31.04
2022-08-03T17:31:31.259Z,31.11
2022-08-03T17:34:04.445Z,31.05
2022-08-03T17:37:02.615Z,31.02
2022-08-03T17:39:48.506Z,31.00
2022-08-03T17:42:30.614Z,30.90
2022-08-03T17:45:01.657Z,30.86
2022-08-03T17:47:42.405Z,30.66
2022-08-03T17:50:24.585Z,30.68
2022-08-03T17:53:01.737Z,30.55
2022-08-03T17:55:55.170Z,30.47
2022-08-03T17:58:41.394Z,30.45
2022-08-03T18:02:03.647Z,30.24
2022-08-03T18:04:30.083Z,30.21
2022-08-03T18:07:11.178Z,30.09
2022-08-03T18:10:06.181Z,29.95
2022-08-03T18:12:51.698Z,29.98
2022-08-03T18:15:25.344Z,29.77
2022-08-03T18:18:02.128Z,29.56
2022-08-03T18:20:41.143Z,29.52
2022-08-03T18:23:25.154Z,29.51
2022-08-03T18:26:02.306Z,29.31
2022-08-03T18:28:33.347Z,29.33
2022-08-03T18:31:05.665Z,29.11
2022-08-03T18:34:16.482Z,28.90
2022-08-03T18:36:30.179Z,28.71
2022-08-03T18:39:01.784Z,28.63
2022-08-03T18:41:33.736Z,28.56
2022-08-03T18:44:08.449Z,28.31
2022-08-03T18:46:48.812Z,27.95
2022-08-03T18:49:29.767Z,27.83
2022-08-03T18:55:02.482Z,27.34
2022-08-03T18:57:44.858Z,27.08
2022-08-03T19:00:16.599Z,26.99
2022-08-03T19:02:50.294Z,26.73
2022-08-03T19:05:21.257Z,26.58
2022-08-03T19:07:58.139Z,26.39
2022-08-03T19:10:32.067Z,26.27
2022-08-03T19:13:05.398Z,26.11
2022-08-03T19:15:51.524Z,25.88
2022-08-03T19:18:22.159Z,25.80
2022-08-03T19:20:54.732Z,25.68
2022-08-03T19:23:25.605Z,25.46
2022-08-03T19:25:55.139Z,25.37
2022-08-03T19:28:30.053Z,25.33
2022-08-03T19:31:02.555Z,25.33
2022-08-03T19:33:57.278Z,25.11
2022-08-03T19:36:27.298Z,24.84
2022-08-03T19:38:57.461Z,24.84
2022-08-03T19:41:41.855Z,24.46
2022-08-03T19:44:12.571Z,24.46
2022-08-03T19:46:53.455Z,24.42
2022-08-03T19:50:06.001Z,24.42
2022-08-03T19:52:16.685Z,24.18
2022-08-03T19:54:54.658Z,24.07
2022-08-03T19:57:27.306Z,23.92
2022-08-03T19:59:57.476Z,23.68
2022-08-03T20:02:26.223Z,23.80
2022-08-03T20:04:56.936Z,23.57
2022-08-03T20:07:25.919Z,23.68
2022-08-03T20:09:56.669Z,23.62
2022-08-03T20:12:28.875Z,23.55
2022-08-03T20:14:57.734Z,23.58
2022-08-03T20:17:55.923Z,23.50
2022-08-03T20:20:14.296Z,23.48
2022-08-03T20:22:47.675Z,23.10
2022-08-03T20:25:21.099Z,23.15
2022-08-03T20:28:07.984Z,23.22
2022-08-03T20:30:44.377Z,23.24
2022-08-03T20:33:18.926Z,23.22
2022-08-03T20:35:49.238Z,23.27
2022-08-03T20:38:17.860Z,23.21
2022-08-03T20:40:46.625Z,23.29
2022-08-03T20:43:16.012Z,23.46
2022-08-03T20:45:58.339Z,23.55
2022-08-03T20:48:29.765Z,23.53
2022-08-03T20:50:57.951Z,23.44
2022-08-03T20:53:56.850Z,23.46
2022-08-03T20:56:15.745Z,23.42
2022-08-03T20:58:50.788Z,23.39
2022-08-03T21:01:27.738Z,23.34
2022-08-03T21:04:09.442Z,23.31
2022-08-03T21:06:45.644Z,23.15
2022-08-03T21:09:25.184Z,23.25
2022-08-03T21:12:13.184Z,23.15
2022-08-03T21:13:08.290Z,27.59
2022-08-03T21:14:52.345Z,23.08
2022-08-03T21:17:40.134Z,23.17
2022-08-03T21:20:10.420Z,23.00
2022-08-03T21:22:39.345Z,23.06
2022-08-03T21:25:10.285Z,22.88
2022-08-03T21:27:38.582Z,23.00
2022-08-03T21:30:11.684Z,22.99
2022-08-03T21:32:40.738Z,22.99
2022-08-03T21:35:11.017Z,22.98
2022-08-03T21:37:39.542Z,22.99
2022-08-03T21:40:09.008Z,22.91
2022-08-03T21:42:37.020Z,22.87
2022-08-03T21:45:08.238Z,22.96
2022-08-03T21:47:38.740Z,22.80
2022-08-03T21:50:10.466Z,22.76
2022-08-03T21:52:42.740Z,22.95
2022-08-03T21:55:20.450Z,22.89
2022-08-03T21:57:54.094Z,22.83
2022-08-03T22:00:24.101Z,22.92
2022-08-03T22:02:55.471Z,22.87
2022-08-03T22:05:29.135Z,22.85
2022-08-03T22:08:13.615Z,22.68
2022-08-03T22:10:42.099Z,22.53
2022-08-03T22:13:09.941Z,22.48
2022-08-03T22:15:39.179Z,22.47
2022-08-03T22:18:07.156Z,22.04
2022-08-03T22:20:35.320Z,22.02
2022-08-03T22:23:05.379Z,22.18
2022-08-03T22:25:34.741Z,22.20
2022-08-03T22:28:06.770Z,22.06
2022-08-03T22:30:36.335Z,22.06
2022-08-03T22:33:08.352Z,21.98
2022-08-03T22:35:44.333Z,21.92
2022-08-03T22:38:16.379Z,21.93
2022-08-03T22:40:44.931Z,21.80
2022-08-03T22:43:12.906Z,21.64
2022-08-03T22:46:06.445Z,21.61
2022-08-03T22:48:35.831Z,21.44
2022-08-03T22:51:09.559Z,21.47
2022-08-03T22:53:38.054Z,21.41
2022-08-03T22:56:06.141Z,21.31
2022-08-03T22:58:34.006Z,21.23
2022-08-03T23:01:05.858Z,21.20
2022-08-03T23:04:00.228Z,21.23
2022-08-03T23:06:28.151Z,21.15
2022-08-03T23:08:56.704Z,20.97
2022-08-03T23:11:26.249Z,20.91
2022-08-03T23:13:57.643Z,20.95
2022-08-03T23:16:28.934Z,20.65
2022-08-03T23:19:16.570Z,20.64
2022-08-03T23:22:00.362Z,20.69
2022-08-03T23:24:31.175Z,20.54
2022-08-03T23:26:59.295Z,20.51
2022-08-03T23:29:27.638Z,20.53
2022-08-03T23:31:57.531Z,20.39
2022-08-03T23:34:45.881Z,20.13
2022-08-03T23:37:15.189Z,20.24
2022-08-03T23:39:45.772Z,20.29
2022-08-03T23:42:16.187Z,20.19
2022-08-03T23:44:44.676Z,20.04
2022-08-03T23:47:12.715Z,19.93
2022-08-03T23:49:44.585Z,20.10
2022-08-03T23:52:21.889Z,20.02
2022-08-03T23:55:04.163Z,19.93
2022-08-03T23:57:42.828Z,19.98
